Terminal Aerodrome Forecast
Issued by NWS Austin/San Antonio, TX

Home | Current Version | Previous Version | Text Only | Print | Product List | Glossary On
Versions: 1 2 3 4 5 6 7 8 9 10 11 12 13 14 15 16 17 18 19 20
000
FTUS44 KEWX 011026 AAB
TAFAUS
TAF AMD
KAUS 011026Z 0110/0212 VRB05KT P6SM BKN012 OVC025
     FM011600 16008KT P6SM BKN050
     FM012100 14012G22KT P6SM BKN060
     FM020100 14008KT P6SM SCT060=

USA.gov is the U.S. government's official web portal to all federal, state and local government web resources and services.